This is the latest recevied weather packets stored in our database for station/object UR7D-12. If no packets are shown the sender has not sent any weather packets the latest 10 day(s).
| Time | Temp. | Humidity | Pressure | Rain* | Wind** | Luminosity | Snow |
|---|---|---|---|---|---|---|---|
| 1777926338 | 17.22° C | 45% | 990.1 hPa | 0 mm | - | - | - |
| 1777926036 | 17.22° C | 44% | 990.1 hPa | 0 mm | - | - | - |
| 1777925733 | 17.78° C | 43% | 990.1 hPa | 0 mm | - | - | - |
| 1777925433 | 17.78° C | 42% | 990.1 hPa | 0 mm | - | - | - |
| 1777925132 | 17.78° C | 43% | 990.1 hPa | 0 mm | - | - | - |
| 1777924833 | 17.78° C | 42% | 990.1 hPa | 0 mm | - | - | - |
| 1777924531 | 17.78° C | 42% | 990.1 hPa | 0 mm | - | - | - |
| 1777924231 | 17.78° C | 42% | 990.1 hPa | 0 mm | - | - | - |
| 1777923932 | 17.78° C | 41% | 990.2 hPa | 0 mm | - | - | - |
| 1777923330 | 18.33° C | 40% | 990.1 hPa | 0 mm | - | - | - |
| 1777923031 | 18.33° C | 39% | 990.1 hPa | 0 mm | - | - | - |
| 1777922730 | 18.89° C | 39% | 990.3 hPa | 0 mm | - | - | - |
| 1777922129 | 18.89° C | 38% | 990.2 hPa | 0 mm | - | - | - |
| 1777921830 | 19.44° C | 37% | 990.2 hPa | 0 mm | - | - | - |
| 1777921531 | 19.44° C | 37% | 990.3 hPa | 0 mm | - | - | - |
| 1777921230 | 18.89° C | 39% | 990.4 hPa | 0 mm | - | - | - |
| 1777920327 | 18.89° C | 41% | 990.1 hPa | 0 mm | - | - | - |
| 1777919430 | 18.89° C | 44% | 990.1 hPa | 0 mm | - | - | - |
| 1777918830 | 18.89° C | 44% | 990 hPa | 0 mm | - | - | - |
| 1777918528 | 18.89° C | 41% | 990 hPa | 0 mm | - | - | - |
| 1777917626 | 20.56° C | 38% | 990 hPa | 0 mm | - | - | - |
| 1777916727 | 21.67° C | 35% | 989.8 hPa | 0 mm | - | - | - |
| 1777916426 | 21.67° C | 35% | 989.7 hPa | 0 mm | - | - | - |
| 1777916126 | 22.22° C | 33% | 989.7 hPa | 0 mm | - | - | - |
| 1777914324 | 22.78° C | 34% | 989.6 hPa | 0 mm | - | - | - |
* Rain latest hour (hover to see other rain measurements)
** Current wind speed in m/s (hover to see current wind gust speed)